sensor_id;sensor_type;location;lat;lon;timestamp;P1;durP1;ratioP1;P2;durP2;ratioP2
35909;SDS011;22004;49.120;-0.200;2023-05-07T00:01:41;9.50;;;3.20;;
35909;SDS011;22004;49.120;-0.200;2023-05-07T00:04:06;8.30;;;2.60;;
35909;SDS011;22004;49.120;-0.200;2023-05-07T00:06:32;6.78;;;2.63;;
35909;SDS011;22004;49.120;-0.200;2023-05-07T00:08:58;8.02;;;2.40;;
35909;SDS011;22004;49.120;-0.200;2023-05-07T00:11:24;4.78;;;2.67;;
35909;SDS011;22004;49.120;-0.200;2023-05-07T00:13:49;6.38;;;2.85;;
35909;SDS011;22004;49.120;-0.200;2023-05-07T00:16:15;5.20;;;2.63;;
35909;SDS011;22004;49.120;-0.200;2023-05-07T00:18:40;6.35;;;2.70;;
35909;SDS011;22004;49.120;-0.200;2023-05-07T00:21:05;10.30;;;3.80;;
35909;SDS011;22004;49.120;-0.200;2023-05-07T00:23:31;4.65;;;2.28;;
35909;SDS011;22004;49.120;-0.200;2023-05-07T00:25:56;5.15;;;2.40;;
35909;SDS011;22004;49.120;-0.200;2023-05-07T00:28:21;4.07;;;2.22;;
35909;SDS011;22004;49.120;-0.200;2023-05-07T00:30:47;7.78;;;2.90;;
35909;SDS011;22004;49.120;-0.200;2023-05-07T00:33:12;11.05;;;3.35;;
35909;SDS011;22004;49.120;-0.200;2023-05-07T00:35:37;7.70;;;2.95;;
35909;SDS011;22004;49.120;-0.200;2023-05-07T00:38:03;4.50;;;2.55;;
35909;SDS011;22004;49.120;-0.200;2023-05-07T00:40:28;6.25;;;2.65;;
35909;SDS011;22004;49.120;-0.200;2023-05-07T00:42:53;6.68;;;2.50;;
35909;SDS011;22004;49.120;-0.200;2023-05-07T00:45:23;7.60;;;3.42;;
35909;SDS011;22004;49.120;-0.200;2023-05-07T00:47:54;7.70;;;2.83;;
35909;SDS011;22004;49.120;-0.200;2023-05-07T00:50:21;4.60;;;2.40;;
35909;SDS011;22004;49.120;-0.200;2023-05-07T00:52:47;5.18;;;2.15;;
35909;SDS011;22004;49.120;-0.200;2023-05-07T00:55:12;3.40;;;2.40;;
35909;SDS011;22004;49.120;-0.200;2023-05-07T00:57:39;5.45;;;2.10;;
35909;SDS011;22004;49.120;-0.200;2023-05-07T01:00:06;10.95;;;2.85;;
35909;SDS011;22004;49.120;-0.200;2023-05-07T01:02:34;5.25;;;2.28;;
35909;SDS011;22004;49.120;-0.200;2023-05-07T01:05:00;6.30;;;2.05;;
35909;SDS011;22004;49.120;-0.200;2023-05-07T01:07:26;5.85;;;2.22;;
35909;SDS011;22004;49.120;-0.200;2023-05-07T01:09:52;9.82;;;3.05;;
35909;SDS011;22004;49.120;-0.200;2023-05-07T01:12:18;5.88;;;2.50;;
35909;SDS011;22004;49.120;-0.200;2023-05-07T01:14:44;9.13;;;2.70;;
35909;SDS011;22004;49.120;-0.200;2023-05-07T01:17:10;4.22;;;2.00;;
35909;SDS011;22004;49.120;-0.200;2023-05-07T01:19:35;5.45;;;2.17;;
35909;SDS011;22004;49.120;-0.200;2023-05-07T01:22:02;4.88;;;1.70;;
35909;SDS011;22004;49.120;-0.200;2023-05-07T01:24:32;5.15;;;2.03;;
35909;SDS011;22004;49.120;-0.200;2023-05-07T01:26:58;5.20;;;2.40;;
35909;SDS011;22004;49.120;-0.200;2023-05-07T01:29:23;3.72;;;1.83;;
35909;SDS011;22004;49.120;-0.200;2023-05-07T01:31:48;6.47;;;2.83;;
35909;SDS011;22004;49.120;-0.200;2023-05-07T01:34:17;5.05;;;2.63;;
35909;SDS011;22004;49.120;-0.200;2023-05-07T01:36:43;8.38;;;2.55;;
35909;SDS011;22004;49.120;-0.200;2023-05-07T01:39:09;4.13;;;2.13;;
35909;SDS011;22004;49.120;-0.200;2023-05-07T01:41:35;5.35;;;2.70;;
35909;SDS011;22004;49.120;-0.200;2023-05-07T01:44:01;4.32;;;2.10;;
35909;SDS011;22004;49.120;-0.200;2023-05-07T01:46:27;6.95;;;2.90;;
35909;SDS011;22004;49.120;-0.200;2023-05-07T01:48:54;5.07;;;2.30;;
35909;SDS011;22004;49.120;-0.200;2023-05-07T01:51:20;5.78;;;2.60;;
35909;SDS011;22004;49.120;-0.200;2023-05-07T01:53:47;6.40;;;2.53;;
35909;SDS011;22004;49.120;-0.200;2023-05-07T01:56:15;6.60;;;2.63;;
35909;SDS011;22004;49.120;-0.200;2023-05-07T01:58:41;5.53;;;2.30;;
35909;SDS011;22004;49.120;-0.200;2023-05-07T02:01:07;4.38;;;2.47;;
35909;SDS011;22004;49.120;-0.200;2023-05-07T02:03:32;5.40;;;2.30;;
35909;SDS011;22004;49.120;-0.200;2023-05-07T02:05:57;5.25;;;2.17;;
35909;SDS011;22004;49.120;-0.200;2023-05-07T02:08:23;2.35;;;1.95;;
35909;SDS011;22004;49.120;-0.200;2023-05-07T02:10:48;5.05;;;2.30;;
35909;SDS011;22004;49.120;-0.200;2023-05-07T02:13:15;4.50;;;2.30;;
35909;SDS011;22004;49.120;-0.200;2023-05-07T02:15:40;4.25;;;2.20;;
35909;SDS011;22004;49.120;-0.200;2023-05-07T02:18:06;5.53;;;1.85;;
35909;SDS011;22004;49.120;-0.200;2023-05-07T02:20:32;8.02;;;3.13;;
35909;SDS011;22004;49.120;-0.200;2023-05-07T02:22:58;4.95;;;2.10;;
35909;SDS011;22004;49.120;-0.200;2023-05-07T02:25:23;6.25;;;1.77;;
35909;SDS011;22004;49.120;-0.200;2023-05-07T02:27:49;4.55;;;1.95;;
35909;SDS011;22004;49.120;-0.200;2023-05-07T02:30:14;3.25;;;1.92;;
35909;SDS011;22004;49.120;-0.200;2023-05-07T02:32:39;3.30;;;2.45;;
35909;SDS011;22004;49.120;-0.200;2023-05-07T02:35:05;4.68;;;2.22;;
35909;SDS011;22004;49.120;-0.200;2023-05-07T02:37:30;6.75;;;2.08;;
35909;SDS011;22004;49.120;-0.200;2023-05-07T02:39:56;2.20;;;1.90;;
35909;SDS011;22004;49.120;-0.200;2023-05-07T02:42:21;2.47;;;1.77;;
35909;SDS011;22004;49.120;-0.200;2023-05-07T02:44:46;6.40;;;2.05;;
35909;SDS011;22004;49.120;-0.200;2023-05-07T02:47:12;3.40;;;1.98;;
35909;SDS011;22004;49.120;-0.200;2023-05-07T02:49:38;5.38;;;2.20;;
35909;SDS011;22004;49.120;-0.200;2023-05-07T02:52:04;4.57;;;1.80;;
35909;SDS011;22004;49.120;-0.200;2023-05-07T02:54:29;3.03;;;2.03;;
35909;SDS011;22004;49.120;-0.200;2023-05-07T02:56:55;5.32;;;2.00;;
35909;SDS011;22004;49.120;-0.200;2023-05-07T02:59:21;4.30;;;2.10;;
35909;SDS011;22004;49.120;-0.200;2023-05-07T03:01:46;7.82;;;2.42;;
35909;SDS011;22004;49.120;-0.200;2023-05-07T03:04:13;2.92;;;1.70;;
35909;SDS011;22004;49.120;-0.200;2023-05-07T03:06:38;5.97;;;2.40;;
35909;SDS011;22004;49.120;-0.200;2023-05-07T03:09:04;4.93;;;2.20;;
35909;SDS011;22004;49.120;-0.200;2023-05-07T03:11:29;3.67;;;2.28;;
35909;SDS011;22004;49.120;-0.200;2023-05-07T03:13:54;6.28;;;1.77;;
35909;SDS011;22004;49.120;-0.200;2023-05-07T03:16:20;3.58;;;2.42;;
35909;SDS011;22004;49.120;-0.200;2023-05-07T03:18:45;4.97;;;2.30;;
35909;SDS011;22004;49.120;-0.200;2023-05-07T03:21:11;2.30;;;1.83;;
35909;SDS011;22004;49.120;-0.200;2023-05-07T03:23:36;3.42;;;2.00;;
35909;SDS011;22004;49.120;-0.200;2023-05-07T03:26:01;2.95;;;1.95;;
35909;SDS011;22004;49.120;-0.200;2023-05-07T03:28:27;3.53;;;2.13;;
35909;SDS011;22004;49.120;-0.200;2023-05-07T03:30:52;3.47;;;1.98;;
35909;SDS011;22004;49.120;-0.200;2023-05-07T03:33:18;4.88;;;2.22;;
35909;SDS011;22004;49.120;-0.200;2023-05-07T03:35:43;2.95;;;2.00;;
35909;SDS011;22004;49.120;-0.200;2023-05-07T03:38:08;4.00;;;2.13;;
35909;SDS011;22004;49.120;-0.200;2023-05-07T03:40:34;2.85;;;2.30;;
35909;SDS011;22004;49.120;-0.200;2023-05-07T03:42:59;2.83;;;1.95;;
35909;SDS011;22004;49.120;-0.200;2023-05-07T03:45:25;4.38;;;2.20;;
35909;SDS011;22004;49.120;-0.200;2023-05-07T03:47:51;6.65;;;3.00;;
35909;SDS011;22004;49.120;-0.200;2023-05-07T03:50:16;4.50;;;2.22;;
35909;SDS011;22004;49.120;-0.200;2023-05-07T03:52:41;4.38;;;2.75;;
35909;SDS011;22004;49.120;-0.200;2023-05-07T03:55:07;3.78;;;2.40;;
35909;SDS011;22004;49.120;-0.200;2023-05-07T03:57:33;5.13;;;2.75;;
35909;SDS011;22004;49.120;-0.200;2023-05-07T03:59:58;3.40;;;2.15;;
35909;SDS011;22004;49.120;-0.200;2023-05-07T04:02:23;8.73;;;2.70;;
35909;SDS011;22004;49.120;-0.200;2023-05-07T04:04:49;4.00;;;2.50;;
35909;SDS011;22004;49.120;-0.200;2023-05-07T04:07:14;6.38;;;2.08;;
35909;SDS011;22004;49.120;-0.200;2023-05-07T04:09:40;8.18;;;3.13;;
35909;SDS011;22004;49.120;-0.200;2023-05-07T04:12:06;3.83;;;2.47;;
35909;SDS011;22004;49.120;-0.200;2023-05-07T04:14:31;6.38;;;2.80;;
35909;SDS011;22004;49.120;-0.200;2023-05-07T04:16:57;10.40;;;2.88;;
35909;SDS011;22004;49.120;-0.200;2023-05-07T04:19:24;7.25;;;2.30;;
35909;SDS011;22004;49.120;-0.200;2023-05-07T04:21:49;5.22;;;2.95;;
35909;SDS011;22004;49.120;-0.200;2023-05-07T04:24:15;6.95;;;2.97;;
35909;SDS011;22004;49.120;-0.200;2023-05-07T04:26:40;9.95;;;4.50;;
35909;SDS011;22004;49.120;-0.200;2023-05-07T04:29:06;6.35;;;3.50;;
35909;SDS011;22004;49.120;-0.200;2023-05-07T04:31:31;5.75;;;3.08;;
35909;SDS011;22004;49.120;-0.200;2023-05-07T04:33:57;5.93;;;2.80;;
35909;SDS011;22004;49.120;-0.200;2023-05-07T04:36:22;9.07;;;3.50;;
35909;SDS011;22004;49.120;-0.200;2023-05-07T04:38:47;7.10;;;3.20;;
35909;SDS011;22004;49.120;-0.200;2023-05-07T04:41:13;9.63;;;3.85;;
35909;SDS011;22004;49.120;-0.200;2023-05-07T04:43:38;5.53;;;3.38;;
35909;SDS011;22004;49.120;-0.200;2023-05-07T04:46:04;8.50;;;3.60;;
35909;SDS011;22004;49.120;-0.200;2023-05-07T04:48:29;9.13;;;3.30;;
35909;SDS011;22004;49.120;-0.200;2023-05-07T04:50:55;10.65;;;3.13;;
35909;SDS011;22004;49.120;-0.200;2023-05-07T04:53:20;11.00;;;4.00;;
35909;SDS011;22004;49.120;-0.200;2023-05-07T04:55:46;6.25;;;4.20;;
35909;SDS011;22004;49.120;-0.200;2023-05-07T04:58:12;6.60;;;3.40;;
35909;SDS011;22004;49.120;-0.200;2023-05-07T05:00:37;11.35;;;3.95;;
35909;SDS011;22004;49.120;-0.200;2023-05-07T05:03:04;7.25;;;3.65;;
35909;SDS011;22004;49.120;-0.200;2023-05-07T05:05:30;6.78;;;3.50;;
35909;SDS011;22004;49.120;-0.200;2023-05-07T05:07:56;7.60;;;4.10;;
35909;SDS011;22004;49.120;-0.200;2023-05-07T05:10:21;5.18;;;3.50;;
35909;SDS011;22004;49.120;-0.200;2023-05-07T05:12:47;8.88;;;3.83;;
35909;SDS011;22004;49.120;-0.200;2023-05-07T05:15:12;5.80;;;3.25;;
35909;SDS011;22004;49.120;-0.200;2023-05-07T05:17:38;11.57;;;3.92;;
35909;SDS011;22004;49.120;-0.200;2023-05-07T05:20:04;6.90;;;3.75;;
35909;SDS011;22004;49.120;-0.200;2023-05-07T05:22:30;8.80;;;4.15;;
35909;SDS011;22004;49.120;-0.200;2023-05-07T05:24:56;8.80;;;3.28;;
35909;SDS011;22004;49.120;-0.200;2023-05-07T05:27:22;6.55;;;3.22;;
35909;SDS011;22004;49.120;-0.200;2023-05-07T05:29:47;8.93;;;3.72;;
35909;SDS011;22004;49.120;-0.200;2023-05-07T05:32:12;7.00;;;4.13;;
35909;SDS011;22004;49.120;-0.200;2023-05-07T05:34:38;10.85;;;4.85;;
35909;SDS011;22004;49.120;-0.200;2023-05-07T05:37:03;7.07;;;3.50;;
35909;SDS011;22004;49.120;-0.200;2023-05-07T05:39:28;9.40;;;3.65;;
35909;SDS011;22004;49.120;-0.200;2023-05-07T05:41:54;8.13;;;4.05;;
35909;SDS011;22004;49.120;-0.200;2023-05-07T05:44:19;12.73;;;4.85;;
35909;SDS011;22004;49.120;-0.200;2023-05-07T05:46:45;7.13;;;4.25;;
35909;SDS011;22004;49.120;-0.200;2023-05-07T05:49:10;10.77;;;4.68;;
35909;SDS011;22004;49.120;-0.200;2023-05-07T05:51:35;9.50;;;3.50;;
35909;SDS011;22004;49.120;-0.200;2023-05-07T05:54:01;9.93;;;4.53;;
35909;SDS011;22004;49.120;-0.200;2023-05-07T05:56:26;11.60;;;3.63;;
35909;SDS011;22004;49.120;-0.200;2023-05-07T05:58:52;8.02;;;3.63;;
35909;SDS011;22004;49.120;-0.200;2023-05-07T06:01:17;6.03;;;3.60;;
35909;SDS011;22004;49.120;-0.200;2023-05-07T06:03:43;5.63;;;3.80;;
35909;SDS011;22004;49.120;-0.200;2023-05-07T06:06:09;7.53;;;3.63;;
35909;SDS011;22004;49.120;-0.200;2023-05-07T06:08:34;7.72;;;3.50;;
35909;SDS011;22004;49.120;-0.200;2023-05-07T06:11:00;6.57;;;3.80;;
35909;SDS011;22004;49.120;-0.200;2023-05-07T06:13:26;7.32;;;4.00;;
35909;SDS011;22004;49.120;-0.200;2023-05-07T06:15:51;6.72;;;3.40;;
35909;SDS011;22004;49.120;-0.200;2023-05-07T06:18:17;8.43;;;3.90;;
35909;SDS011;22004;49.120;-0.200;2023-05-07T06:20:42;9.45;;;3.85;;
35909;SDS011;22004;49.120;-0.200;2023-05-07T06:23:07;8.00;;;3.67;;
35909;SDS011;22004;49.120;-0.200;2023-05-07T06:25:33;7.50;;;3.55;;
35909;SDS011;22004;49.120;-0.200;2023-05-07T06:27:58;4.90;;;3.25;;
35909;SDS011;22004;49.120;-0.200;2023-05-07T06:30:23;6.38;;;3.25;;
35909;SDS011;22004;49.120;-0.200;2023-05-07T06:32:49;6.55;;;3.75;;
35909;SDS011;22004;49.120;-0.200;2023-05-07T06:35:14;4.50;;;2.83;;
35909;SDS011;22004;49.120;-0.200;2023-05-07T06:37:41;5.03;;;2.88;;
35909;SDS011;22004;49.120;-0.200;2023-05-07T06:40:07;4.32;;;3.15;;
35909;SDS011;22004;49.120;-0.200;2023-05-07T06:42:35;4.40;;;2.97;;
35909;SDS011;22004;49.120;-0.200;2023-05-07T06:45:00;6.53;;;3.13;;
35909;SDS011;22004;49.120;-0.200;2023-05-07T06:47:26;6.90;;;3.33;;
35909;SDS011;22004;49.120;-0.200;2023-05-07T06:49:51;5.03;;;2.83;;
35909;SDS011;22004;49.120;-0.200;2023-05-07T06:52:17;10.07;;;3.10;;
35909;SDS011;22004;49.120;-0.200;2023-05-07T06:54:42;12.55;;;3.45;;
35909;SDS011;22004;49.120;-0.200;2023-05-07T06:57:07;12.32;;;3.55;;
35909;SDS011;22004;49.120;-0.200;2023-05-07T06:59:33;10.10;;;3.22;;
35909;SDS011;22004;49.120;-0.200;2023-05-07T07:01:58;6.68;;;3.63;;
35909;SDS011;22004;49.120;-0.200;2023-05-07T07:04:24;14.00;;;3.55;;
35909;SDS011;22004;49.120;-0.200;2023-05-07T07:06:51;7.63;;;3.72;;
35909;SDS011;22004;49.120;-0.200;2023-05-07T07:09:17;12.82;;;4.07;;
35909;SDS011;22004;49.120;-0.200;2023-05-07T07:11:42;12.60;;;4.25;;
35909;SDS011;22004;49.120;-0.200;2023-05-07T07:14:08;11.38;;;4.13;;
35909;SDS011;22004;49.120;-0.200;2023-05-07T07:16:33;10.25;;;4.57;;
35909;SDS011;22004;49.120;-0.200;2023-05-07T07:18:58;6.82;;;5.07;;
35909;SDS011;22004;49.120;-0.200;2023-05-07T07:21:24;9.95;;;3.80;;
35909;SDS011;22004;49.120;-0.200;2023-05-07T07:23:49;5.85;;;3.92;;
35909;SDS011;22004;49.120;-0.200;2023-05-07T07:26:14;10.18;;;3.90;;
35909;SDS011;22004;49.120;-0.200;2023-05-07T07:28:43;9.30;;;3.20;;
35909;SDS011;22004;49.120;-0.200;2023-05-07T07:31:09;5.53;;;3.83;;
35909;SDS011;22004;49.120;-0.200;2023-05-07T07:33:35;5.63;;;3.53;;
35909;SDS011;22004;49.120;-0.200;2023-05-07T07:36:01;9.30;;;4.50;;
35909;SDS011;22004;49.120;-0.200;2023-05-07T07:38:27;7.88;;;3.15;;
35909;SDS011;22004;49.120;-0.200;2023-05-07T07:40:53;6.35;;;4.28;;
35909;SDS011;22004;49.120;-0.200;2023-05-07T07:43:18;10.13;;;5.30;;
35909;SDS011;22004;49.120;-0.200;2023-05-07T07:45:43;9.18;;;4.53;;
35909;SDS011;22004;49.120;-0.200;2023-05-07T07:48:09;12.38;;;4.15;;
35909;SDS011;22004;49.120;-0.200;2023-05-07T07:50:35;13.38;;;5.50;;
35909;SDS011;22004;49.120;-0.200;2023-05-07T07:53:00;7.30;;;5.47;;
35909;SDS011;22004;49.120;-0.200;2023-05-07T07:55:25;12.80;;;5.38;;
35909;SDS011;22004;49.120;-0.200;2023-05-07T07:57:52;10.75;;;4.95;;
35909;SDS011;22004;49.120;-0.200;2023-05-07T08:00:17;7.60;;;4.18;;
35909;SDS011;22004;49.120;-0.200;2023-05-07T08:02:43;5.70;;;3.70;;
35909;SDS011;22004;49.120;-0.200;2023-05-07T08:05:08;5.60;;;3.40;;
35909;SDS011;22004;49.120;-0.200;2023-05-07T08:07:34;11.25;;;7.10;;
35909;SDS011;22004;49.120;-0.200;2023-05-07T08:09:59;7.20;;;3.85;;
35909;SDS011;22004;49.120;-0.200;2023-05-07T08:12:24;12.32;;;3.25;;
35909;SDS011;22004;49.120;-0.200;2023-05-07T08:14:50;7.45;;;3.47;;
35909;SDS011;22004;49.120;-0.200;2023-05-07T08:17:15;5.60;;;3.20;;
35909;SDS011;22004;49.120;-0.200;2023-05-07T08:19:41;22.23;;;7.05;;
35909;SDS011;22004;49.120;-0.200;2023-05-07T08:22:08;6.65;;;3.92;;
35909;SDS011;22004;49.120;-0.200;2023-05-07T08:24:34;3.55;;;3.00;;
35909;SDS011;22004;49.120;-0.200;2023-05-07T08:26:59;6.97;;;3.63;;
35909;SDS011;22004;49.120;-0.200;2023-05-07T08:29:25;8.90;;;3.47;;
35909;SDS011;22004;49.120;-0.200;2023-05-07T08:31:50;15.00;;;4.70;;
35909;SDS011;22004;49.120;-0.200;2023-05-07T08:34:15;9.70;;;4.00;;
35909;SDS011;22004;49.120;-0.200;2023-05-07T08:36:41;15.77;;;6.75;;
35909;SDS011;22004;49.120;-0.200;2023-05-07T08:39:11;5.78;;;3.50;;
35909;SDS011;22004;49.120;-0.200;2023-05-07T08:41:36;16.08;;;3.63;;
35909;SDS011;22004;49.120;-0.200;2023-05-07T08:44:02;12.73;;;3.70;;
35909;SDS011;22004;49.120;-0.200;2023-05-07T08:46:30;3.50;;;3.00;;
35909;SDS011;22004;49.120;-0.200;2023-05-07T08:48:57;9.40;;;2.80;;
35909;SDS011;22004;49.120;-0.200;2023-05-07T08:51:22;9.05;;;2.75;;
35909;SDS011;22004;49.120;-0.200;2023-05-07T08:53:48;5.30;;;2.53;;
35909;SDS011;22004;49.120;-0.200;2023-05-07T08:56:15;8.98;;;2.80;;
35909;SDS011;22004;49.120;-0.200;2023-05-07T08:58:41;5.55;;;3.00;;
35909;SDS011;22004;49.120;-0.200;2023-05-07T09:01:08;5.45;;;2.60;;
35909;SDS011;22004;49.120;-0.200;2023-05-07T09:03:36;5.55;;;2.50;;
35909;SDS011;22004;49.120;-0.200;2023-05-07T09:06:03;5.85;;;2.55;;
35909;SDS011;22004;49.120;-0.200;2023-05-07T09:08:28;4.05;;;2.75;;
35909;SDS011;22004;49.120;-0.200;2023-05-07T09:10:54;3.22;;;2.55;;
35909;SDS011;22004;49.120;-0.200;2023-05-07T09:13:19;5.85;;;3.00;;
35909;SDS011;22004;49.120;-0.200;2023-05-07T09:15:45;5.10;;;2.72;;
35909;SDS011;22004;49.120;-0.200;2023-05-07T09:18:10;3.90;;;2.28;;
35909;SDS011;22004;49.120;-0.200;2023-05-07T09:20:37;5.65;;;2.72;;
35909;SDS011;22004;49.120;-0.200;2023-05-07T09:23:03;6.60;;;2.85;;
35909;SDS011;22004;49.120;-0.200;2023-05-07T09:25:29;8.15;;;2.60;;
35909;SDS011;22004;49.120;-0.200;2023-05-07T09:27:56;3.00;;;2.30;;
35909;SDS011;22004;49.120;-0.200;2023-05-07T09:30:21;5.30;;;2.83;;
35909;SDS011;22004;49.120;-0.200;2023-05-07T09:32:46;6.10;;;2.50;;
35909;SDS011;22004;49.120;-0.200;2023-05-07T09:35:15;4.50;;;2.22;;
35909;SDS011;22004;49.120;-0.200;2023-05-07T09:37:42;3.58;;;2.08;;
35909;SDS011;22004;49.120;-0.200;2023-05-07T09:40:08;6.65;;;2.10;;
35909;SDS011;22004;49.120;-0.200;2023-05-07T09:42:44;2.42;;;2.20;;
35909;SDS011;22004;49.120;-0.200;2023-05-07T09:45:12;2.92;;;2.25;;
35909;SDS011;22004;49.120;-0.200;2023-05-07T09:47:37;5.65;;;3.05;;
35909;SDS011;22004;49.120;-0.200;2023-05-07T09:50:04;3.92;;;2.75;;
35909;SDS011;22004;49.120;-0.200;2023-05-07T09:52:33;4.45;;;2.83;;
35909;SDS011;22004;49.120;-0.200;2023-05-07T09:55:00;4.25;;;3.28;;
35909;SDS011;22004;49.120;-0.200;2023-05-07T09:57:27;4.40;;;3.10;;
35909;SDS011;22004;49.120;-0.200;2023-05-07T09:59:53;4.07;;;2.92;;
35909;SDS011;22004;49.120;-0.200;2023-05-07T10:02:21;6.85;;;3.55;;
35909;SDS011;22004;49.120;-0.200;2023-05-07T10:04:50;3.53;;;2.83;;
35909;SDS011;22004;49.120;-0.200;2023-05-07T10:07:16;3.42;;;3.10;;
35909;SDS011;22004;49.120;-0.200;2023-05-07T10:09:42;6.32;;;3.63;;
35909;SDS011;22004;49.120;-0.200;2023-05-07T10:12:09;3.80;;;2.92;;
35909;SDS011;22004;49.120;-0.200;2023-05-07T10:14:34;3.45;;;2.85;;
35909;SDS011;22004;49.120;-0.200;2023-05-07T10:17:02;5.22;;;3.00;;
35909;SDS011;22004;49.120;-0.200;2023-05-07T10:19:28;3.55;;;3.03;;
35909;SDS011;22004;49.120;-0.200;2023-05-07T10:21:56;5.18;;;3.13;;
35909;SDS011;22004;49.120;-0.200;2023-05-07T10:24:28;5.47;;;3.90;;
35909;SDS011;22004;49.120;-0.200;2023-05-07T10:26:56;4.82;;;3.30;;
35909;SDS011;22004;49.120;-0.200;2023-05-07T10:29:28;5.50;;;3.45;;
35909;SDS011;22004;49.120;-0.200;2023-05-07T10:34:37;8.27;;;4.70;;
35909;SDS011;22004;49.120;-0.200;2023-05-07T10:37:06;4.57;;;3.63;;
35909;SDS011;22004;49.120;-0.200;2023-05-07T10:39:32;6.95;;;5.13;;
35909;SDS011;22004;49.120;-0.200;2023-05-07T10:42:09;4.72;;;3.63;;
35909;SDS011;22004;49.120;-0.200;2023-05-07T10:44:35;5.38;;;4.22;;
35909;SDS011;22004;49.120;-0.200;2023-05-07T10:47:11;10.82;;;7.15;;
35909;SDS011;22004;49.120;-0.200;2023-05-07T10:52:20;16.30;;;9.02;;
35909;SDS011;22004;49.120;-0.200;2023-05-07T10:54:48;26.42;;;13.25;;
35909;SDS011;22004;49.120;-0.200;2023-05-07T10:57:50;13.23;;;8.63;;
35909;SDS011;22004;49.120;-0.200;2023-05-07T11:05:25;16.43;;;9.83;;
35909;SDS011;22004;49.120;-0.200;2023-05-07T11:08:01;15.00;;;8.68;;
35909;SDS011;22004;49.120;-0.200;2023-05-07T11:10:49;11.77;;;7.32;;
35909;SDS011;22004;49.120;-0.200;2023-05-07T11:13:40;11.02;;;7.35;;
35909;SDS011;22004;49.120;-0.200;2023-05-07T11:16:17;18.60;;;9.45;;
35909;SDS011;22004;49.120;-0.200;2023-05-07T11:18:52;18.67;;;10.57;;
35909;SDS011;22004;49.120;-0.200;2023-05-07T11:23:59;12.82;;;7.63;;
35909;SDS011;22004;49.120;-0.200;2023-05-07T11:26:25;15.00;;;9.55;;
35909;SDS011;22004;49.120;-0.200;2023-05-07T11:28:52;13.20;;;8.48;;
35909;SDS011;22004;49.120;-0.200;2023-05-07T11:31:22;14.02;;;8.57;;
35909;SDS011;22004;49.120;-0.200;2023-05-07T11:33:52;15.38;;;8.60;;
35909;SDS011;22004;49.120;-0.200;2023-05-07T11:36:18;13.43;;;8.07;;
35909;SDS011;22004;49.120;-0.200;2023-05-07T11:38:45;18.88;;;10.27;;
35909;SDS011;22004;49.120;-0.200;2023-05-07T11:41:10;10.10;;;7.05;;
35909;SDS011;22004;49.120;-0.200;2023-05-07T11:43:36;16.45;;;10.52;;
35909;SDS011;22004;49.120;-0.200;2023-05-07T11:46:08;27.25;;;10.82;;
35909;SDS011;22004;49.120;-0.200;2023-05-07T11:48:35;20.00;;;10.75;;
35909;SDS011;22004;49.120;-0.200;2023-05-07T11:51:01;19.45;;;12.20;;
35909;SDS011;22004;49.120;-0.200;2023-05-07T11:53:34;16.02;;;8.82;;
35909;SDS011;22004;49.120;-0.200;2023-05-07T11:56:05;20.83;;;12.75;;
35909;SDS011;22004;49.120;-0.200;2023-05-07T11:58:31;16.10;;;9.43;;
35909;SDS011;22004;49.120;-0.200;2023-05-07T12:00:57;23.42;;;13.18;;
35909;SDS011;22004;49.120;-0.200;2023-05-07T12:03:22;25.23;;;12.25;;
35909;SDS011;22004;49.120;-0.200;2023-05-07T12:05:48;23.42;;;10.73;;
35909;SDS011;22004;49.120;-0.200;2023-05-07T12:08:14;27.63;;;12.43;;
35909;SDS011;22004;49.120;-0.200;2023-05-07T12:10:43;26.05;;;13.70;;
35909;SDS011;22004;49.120;-0.200;2023-05-07T12:15:42;20.02;;;10.02;;
35909;SDS011;22004;49.120;-0.200;2023-05-07T12:18:08;19.55;;;9.90;;
35909;SDS011;22004;49.120;-0.200;2023-05-07T12:20:34;15.00;;;9.20;;
35909;SDS011;22004;49.120;-0.200;2023-05-07T12:23:01;15.90;;;8.93;;
35909;SDS011;22004;49.120;-0.200;2023-05-07T12:25:29;12.13;;;7.80;;
35909;SDS011;22004;49.120;-0.200;2023-05-07T12:27:56;14.60;;;9.32;;
35909;SDS011;22004;49.120;-0.200;2023-05-07T12:30:24;14.25;;;8.93;;
35909;SDS011;22004;49.120;-0.200;2023-05-07T12:32:52;18.40;;;8.93;;
35909;SDS011;22004;49.120;-0.200;2023-05-07T12:35:26;15.25;;;8.30;;
35909;SDS011;22004;49.120;-0.200;2023-05-07T12:37:59;15.88;;;9.85;;
35909;SDS011;22004;49.120;-0.200;2023-05-07T12:40:38;14.93;;;7.07;;
35909;SDS011;22004;49.120;-0.200;2023-05-07T12:43:05;13.25;;;6.97;;
35909;SDS011;22004;49.120;-0.200;2023-05-07T12:45:30;13.13;;;7.53;;
35909;SDS011;22004;49.120;-0.200;2023-05-07T12:47:56;11.98;;;7.53;;
35909;SDS011;22004;49.120;-0.200;2023-05-07T12:50:30;12.40;;;7.10;;
35909;SDS011;22004;49.120;-0.200;2023-05-07T12:52:56;15.30;;;7.03;;
35909;SDS011;22004;49.120;-0.200;2023-05-07T12:55:22;11.88;;;7.03;;
35909;SDS011;22004;49.120;-0.200;2023-05-07T12:57:48;13.93;;;7.00;;
35909;SDS011;22004;49.120;-0.200;2023-05-07T13:00:15;12.40;;;7.35;;
35909;SDS011;22004;49.120;-0.200;2023-05-07T13:02:41;14.63;;;7.00;;
35909;SDS011;22004;49.120;-0.200;2023-05-07T13:05:09;15.10;;;7.00;;
35909;SDS011;22004;49.120;-0.200;2023-05-07T13:07:34;13.23;;;6.22;;
35909;SDS011;22004;49.120;-0.200;2023-05-07T13:10:01;9.70;;;6.35;;
35909;SDS011;22004;49.120;-0.200;2023-05-07T13:12:27;11.98;;;6.32;;
35909;SDS011;22004;49.120;-0.200;2023-05-07T13:14:52;11.13;;;7.57;;
35909;SDS011;22004;49.120;-0.200;2023-05-07T13:17:18;15.30;;;7.00;;
35909;SDS011;22004;49.120;-0.200;2023-05-07T13:19:43;11.07;;;5.50;;
35909;SDS011;22004;49.120;-0.200;2023-05-07T13:22:09;14.23;;;6.13;;
35909;SDS011;22004;49.120;-0.200;2023-05-07T13:24:34;11.30;;;6.10;;
35909;SDS011;22004;49.120;-0.200;2023-05-07T13:27:00;9.55;;;5.63;;
35909;SDS011;22004;49.120;-0.200;2023-05-07T13:29:25;10.57;;;4.90;;
35909;SDS011;22004;49.120;-0.200;2023-05-07T13:31:55;8.95;;;5.25;;
35909;SDS011;22004;49.120;-0.200;2023-05-07T13:34:22;9.95;;;5.55;;
35909;SDS011;22004;49.120;-0.200;2023-05-07T13:36:47;7.80;;;4.80;;
35909;SDS011;22004;49.120;-0.200;2023-05-07T13:39:12;10.75;;;4.75;;
35909;SDS011;22004;49.120;-0.200;2023-05-07T13:41:38;10.40;;;5.28;;
35909;SDS011;22004;49.120;-0.200;2023-05-07T13:44:03;10.20;;;5.60;;
35909;SDS011;22004;49.120;-0.200;2023-05-07T13:46:29;10.68;;;5.53;;
35909;SDS011;22004;49.120;-0.200;2023-05-07T13:48:55;9.82;;;5.55;;
35909;SDS011;22004;49.120;-0.200;2023-05-07T13:51:20;7.18;;;4.85;;
35909;SDS011;22004;49.120;-0.200;2023-05-07T13:53:46;10.93;;;5.82;;
35909;SDS011;22004;49.120;-0.200;2023-05-07T13:56:12;12.65;;;6.05;;
35909;SDS011;22004;49.120;-0.200;2023-05-07T13:58:37;11.73;;;6.78;;
35909;SDS011;22004;49.120;-0.200;2023-05-07T14:01:02;11.90;;;7.55;;
35909;SDS011;22004;49.120;-0.200;2023-05-07T14:03:28;20.08;;;9.85;;
35909;SDS011;22004;49.120;-0.200;2023-05-07T14:05:53;14.40;;;7.80;;
35909;SDS011;22004;49.120;-0.200;2023-05-07T14:08:19;21.23;;;9.90;;
35909;SDS011;22004;49.120;-0.200;2023-05-07T14:10:45;22.05;;;11.65;;
35909;SDS011;22004;49.120;-0.200;2023-05-07T14:13:11;12.45;;;8.70;;
35909;SDS011;22004;49.120;-0.200;2023-05-07T14:15:36;15.02;;;9.15;;
35909;SDS011;22004;49.120;-0.200;2023-05-07T14:18:02;18.33;;;9.27;;
35909;SDS011;22004;49.120;-0.200;2023-05-07T14:20:27;18.52;;;11.82;;
35909;SDS011;22004;49.120;-0.200;2023-05-07T14:22:53;16.05;;;10.18;;
35909;SDS011;22004;49.120;-0.200;2023-05-07T14:25:18;15.30;;;10.10;;
35909;SDS011;22004;49.120;-0.200;2023-05-07T14:27:44;15.07;;;10.25;;
35909;SDS011;22004;49.120;-0.200;2023-05-07T14:30:09;18.63;;;11.75;;
35909;SDS011;22004;49.120;-0.200;2023-05-07T14:32:35;18.38;;;12.15;;
35909;SDS011;22004;49.120;-0.200;2023-05-07T14:35:00;19.08;;;12.82;;
35909;SDS011;22004;49.120;-0.200;2023-05-07T14:37:26;17.60;;;10.63;;
35909;SDS011;22004;49.120;-0.200;2023-05-07T14:39:51;19.75;;;13.00;;